Snow Hill, Indiana
Current Conditions -  °F | °C
As of 7:53 AM on Saturday 20 Dec 2014 (Local Time) from KMIE Reporting Station
Haze Haze  
Wind Chill: 29°   Ceiling: 2900
Heat Index: 29°   Visibility: 5mi
Dew Point: 25°   Wind: 0mph
Humidity: 85%   Direction: NA
Pressure: 30.29"   Gusts: NA
Location:  40.1634°N, 85.045°W
Report Text: KMIE 201253Z 00000KT 5SM BR OVC029 M02/M04 A3029 RMK AO2 SLP263 T10171039 $
Loading
Personal Weather Stations






























Interactive Weather Map New forecast layout! Learn more

10-Day Weather Forecast

Advertisements
Track Severe Weather on mobile